Enter the Airport ICAO Code

Search by Airport or City

Current Weather

ZGGG | Guangzhou Baiyun International Airport

Guangzhou, Guangdong, China

Last Update 24 Minutes Ago

Sky with Few Clouds

Temperature of 34 ºC

Light to Moderate Winds from SouthEast

Temperature

34 ºC

Dew Point Temperature

27 ºC

Relative Humidity

67.12 %

Wind Direction

SouthEast (150º, Without Significant Variations)

Wind Velocity

14 km/h (4 kt)

Gusts

None

Visibility

Greater than 10 Kilometers

Sea Level Pressure

1001 hPa (Hectopascals)

Layers of Clouds

5% to 30% of Sky Covered with Towering Cumulus from 1707 mts (5600 ft) Above Ground Level.

5% to 30% of Sky Covered from 1707 mts (5600 ft) Above Ground Level.

METAR ZGGG 191130Z 15004MPS 9999 FEW056TCU FEW056 34/27 Q1001 NOSIG

Weather Forecast

ZGGG | Guangzhou Baiyun International Airport

Guangzhou, Guangdong, China

Forecast valid for the next 24 Hours

From now on it is expected:

Mostly Cloudy Sky

Light to Moderate Winds from South

In 16 hours it is expected the begining of 6 hours with intermittent periods of:

Thunderstorm with Rain

Maximum Temperature

37 ºC in 19 Hours

Minimum Temperature

28 ºC in 10 Hours

TAF ZGGG 190904Z 1912/2012 19004MPS 9000 BKN040 TX37/2007Z TN28/1922Z TEMPO 2004/2010 4000 TSRA SCT010 SCT030CB BKN033